KPUC/PUC METAR and TAF weather

Enter ICAO airport designator
Station Type Date Time Source
KPUC METAR 2019/04/25 01:53 UTC NOAA

KPUC 250153Z AUTO 32012KT 10SM CLR 17/01 A3006 RMK AO2 SLP135 T01720006


Station Type Date Time Source
KPUC Decoded METAR 2019/04/25 01:53 UTC NOAA

PRICE CARBON COUNTY AIRPORT, UT, United States (KPUC) 39-37N 110-45W 2091M
Apr 24, 2019 - 09:53 PM EDT / 2019.04.25 0153 UTC
Wind: from the NW (320 degrees) at 14 MPH (12 KT):0
Visibility: 10 mile(s):0
Sky conditions: clear
Temperature: 63.0 F (17.2 C)
Dew Point: 33.1 F (0.6 C)
Relative Humidity: 32%
Pressure (altimeter): 30.06 in. Hg (1017 hPa)
ob: KPUC 250153Z AUTO 32012KT 10SM CLR 17/01 A3006 RMK AO2 SLP135 T01720006
cycle: 2

Station Type Date Time Source
KPUC TAF UTC NOAA

Error!

Example: see airport list